28. September 2022

Uhrzeit Code Wetter Temp. Sichtweite Wolkendecke Wind METAR/SPECI
08:46
V
14 °C 20 mi 14.000 ft 330° 330° 4 kt METAR CYXX 281546Z 33004KT 260V350 20SM FEW009 SCT070 BKN140 OVC200 14/12 A2997 RMK SF2AC2AC3CS1 SLP151
08:07
I
13 °C 13 mi 900 ft 350° 350° 4 kt METAR CYXX 281507Z 35004KT 13SM BKN009 BKN070 OVC130 13/12 A2996 RMK ST6AC1AC1 SLP147
07:00
V
13 °C 30 mi 21.000 ft 270° 270° 4 kt METAR CYXX 281400Z 27004KT 30SM FEW005 SCT130 BKN210 13/12 A2995 RMK SF1AC3CI3 SLP143
06:00
V
13 °C 15 mi - 240° 240° 4 kt METAR CYXX 281300Z 24004KT 15SM SCT230 13/12 A2991 RMK CI4 SLP131
05:00
V
12 °C 15 mi - 230° 230° 4 kt METAR CYXX 281200Z 23004KT 15SM FEW210 12/11 A2989 RMK CI2 SLP125
04:00
V
13 °C 15 mi - 210° 210° 4 kt METAR CYXX 281100Z 21004KT 15SM FEW210 13/10 A2989 RMK CI2 SLP124
03:00
V
13 °C 15 mi - 230° 230° 2 kt METAR CYXX 281000Z 23002KT 15SM FEW180 SCT210 13/10 A2989 RMK AC2CI2 SLP124
02:00
V
13 °C 15 mi - 220° 220° 3 kt METAR CYXX 280900Z 22003KT 15SM FEW230 13/10 A2989 RMK CI2 SLP124
01:00
V
13 °C 15 mi - 220° 220° 5 kt METAR CYXX 280800Z 22005KT 15SM SKC 13/10 A2989 RMK SLP125
00:00
V
14 °C 15 mi - 230° 230° 6 kt METAR CYXX 280700Z 23006KT 15SM SKC 14/11 A2989 RMK SLP123 DENSITY ALT 200FT

27. September 2022

Uhrzeit Code Wetter Temp. Sichtweite Wolkendecke Wind METAR/SPECI
23:00
V
15 °C 15 mi - 010° 010° 3 kt METAR CYXX 280600Z 01003KT 320V020 15SM FEW210 15/11 A2988 RMK CI2 SLP121 DENSITY ALT 300FT
22:00
V
17 °C 15 mi - 070° 070° 3 kt METAR CYXX 280500Z 07003KT 320V110 15SM FEW220 17/11 A2987 RMK CI2 SLP118 DENSITY ALT 500FT
21:00
V
18 °C 15 mi - 110° 110° 2 kt METAR CYXX 280400Z 11002KT 15SM SCT230 18/11 A2986 RMK CI3 SLP115 DENSITY ALT 700FT
20:00
V
18 °C 15 mi - Var 000° 0 kt METAR CYXX 280300Z 00000KT 15SM SCT240 18/11 A2985 RMK CI4 SLP111 DENSITY ALT 800FT
19:00
V
19 °C 20 mi 25.000 ft 220° 220° 6 kt METAR CYXX 280200Z 22006KT 20SM SCT240 BKN250 19/11 A2984 RMK CC4CI3 DIST HZ E SLP106 DENSITY ALT 800FT
18:00
V
21 °C 20 mi - 230° 230° 12 kt METAR CYXX 280100Z 23012KT 20SM FEW240 SCT250 21/11 A2982 RMK CC2CI2 DIST HZ ALL QUADS SLP100 DENSITY ALT 1100FT
17:00
V
24 °C 15 mi - 210° 210° 8 kt METAR CYXX 280000Z 21008KT 15SM FEW240 24/11 A2982 RMK CI2 DIST HZ ALL QUADS SLP099 DENSITY ALT 1500FT
16:00
V
26 °C 10 mi - 210° 210° 10 kt METAR CYXX 272300Z 21010KT 10SM FEW240 26/12 A2982 RMK CI1 CI TR DIST HZ ALL QUADS SLP099 DENSITY ALT 1700FT
15:00
V
27 °C 10 mi - 220° 220° 7 kt METAR CYXX 272200Z 22007KT 10SM SKC 27/12 A2982 RMK DIST HZ ALL QUADS SLP100 DENSITY ALT 1700FT
14:00
V
25 °C 10 mi - 200° 200° 6 kt METAR CYXX 272100Z 20006KT 170V250 10SM SKC 25/12 A2983 RMK DIST HZ ALL QUADS SLP104 DENSITY ALT 1600FT
13:00
V
25 °C 25 mi - 210° 210° 6 kt METAR CYXX 272000Z 21006KT 180V250 25SM SKC 25/12 A2984 RMK VIS E-SE 10 DIST HZ E-SE SLP108 DENSITY ALT 1500FT
12:00
V
23 °C 25 mi - Var Var 2 kt METAR CYXX 271900Z VRB02KT 25SM SKC 23/12 A2985 RMK VIS E-SE10 DIST HZ E-SE SLP109 DENSITY ALT 1300FT
11:00
V
21 °C 25 mi - Var Var 2 kt METAR CYXX 271800Z VRB02KT 25SM SKC 21/11 A2986 RMK VIS E 10 DIST HZ E SLP114 DENSITY ALT 1000FT
10:00
V
18 °C 25 mi - Var 000° 0 kt METAR CYXX 271700Z 00000KT 25SM SKC 18/12 A2987 RMK VIS E 10 DIST HZ E SLP118 DENSITY ALT 700FT
09:00
V
16 °C 20 mi - 220° 220° 2 kt METAR CYXX 271600Z 22002KT 20SM SKC 16/12 A2988 RMK DIST HZ E-S SLP119 DENSITY ALT 400FT
08:00
V
12 °C 20 mi - 020° 020° 2 kt METAR CYXX 271500Z 02002KT 20SM SKC 12/11 A2987 RMK DIST HZ ALL QUADS SLP117
07:00
V
11 °C 10 mi - 350° 350° 3 kt METAR CYXX 271400Z 35003KT 10SM FEW220 11/10 A2988 RMK CI1 HZ SLP121
06:00
V
11 °C 15 mi - 100° 100° 2 kt METAR CYXX 271300Z 10002KT 15SM SKC 11/10 A2989 RMK SLP125
05:00
V
11 °C 15 mi - Var 000° 0 kt METAR CYXX 271200Z 00000KT 15SM SKC 11/10 A2990 RMK SLP126
04:00
V
15 °C 15 mi - Var 000° 0 kt METAR CYXX 271100Z 00000KT 15SM SKC 15/12 A2989 RMK SLP124 DENSITY ALT 300FT
03:00
V
16 °C 15 mi - 040° 040° 6 kt METAR CYXX 271000Z 04006KT 15SM SKC 16/12 A2989 RMK SLP123 DENSITY ALT 400FT
02:00
V
15 °C 15 mi - 010° 010° 4 kt METAR CYXX 270900Z 01004KT 15SM SKC 15/13 A2990 RMK SLP127 DENSITY ALT 300FT
01:00
V
14 °C 15 mi - 360° 360° 3 kt METAR CYXX 270800Z 36003KT 15SM SKC 14/11 A2990 RMK SLP128 DENSITY ALT 200FT
00:00
V
15 °C 15 mi - Var 000° 0 kt METAR CYXX 270700Z 00000KT 15SM SKC 15/12 A2991 RMK SLP130 DENSITY ALT 300FT

26. September 2022

Uhrzeit Code Wetter Temp. Sichtweite Wolkendecke Wind METAR/SPECI
23:00
V
15 °C 15 mi - 350° 350° 3 kt METAR CYXX 270600Z 35003KT 15SM SKC 15/12 A2991 RMK SLP130 DENSITY ALT 300FT
22:00
V
17 °C 15 mi - 220° 220° 3 kt METAR CYXX 270500Z 22003KT 15SM SKC 17/13 A2991 RMK SLP129 DENSITY ALT 500FT
21:00
V
17 °C 15 mi - 240° 240° 2 kt METAR CYXX 270400Z 24002KT 15SM SKC 17/13 A2990 RMK SLP126 DENSITY ALT 600FT
20:00
V
18 °C 15 mi - 180° 180° 4 kt METAR CYXX 270300Z 18004KT 15SM SKC 18/13 A2989 RMK SLP122 DENSITY ALT 700FT
19:00
V
21 °C 25 mi - 200° 200° 7 kt METAR CYXX 270200Z 20007KT 25SM SKC 21/14 A2988 RMK DIST HZ E-S SLP120 DENSITY ALT 1000FT
18:00
V
27 °C 25 mi - 210° 210° 7 kt METAR CYXX 270100Z 21007KT 25SM SKC 27/14 A2988 RMK DIST HZ E-S SLP121 DENSITY ALT 1700FT
17:00
V
29 °C 25 mi - 210° 210° 5 kt METAR CYXX 270000Z 21005KT 190V250 25SM SKC 29/13 A2989 RMK DIST HZ E-S SLP123 DENSITY ALT 1900FT
16:00
V
29 °C 25 mi - Var Var 3 kt METAR CYXX 262300Z VRB03KT 25SM FEW230 29/11 A2990 RMK CC1 CC TR DIST HZ E-S SLP127 DENSITY ALT 1900FT
15:00
V
28 °C 25 mi - Var 000° 0 kt METAR CYXX 262200Z 00000KT 25SM FEW230 28/11 A2992 RMK CC1 DIST HZ E-S SLP133 DENSITY ALT 1800FT
14:00
V
27 °C 25 mi - 280° 280° 4 kt METAR CYXX 262100Z 28004KT 210V350 25SM FEW180 SCT230 27/12 A2994 RMK AC1CC3 AC TR DIST HZ E-S SLP139 DENSITY ALT 1600FT
13:00
V
26 °C 25 mi - 260° 260° 4 kt METAR CYXX 262000Z 26004KT 240V360 25SM SCT230 SCT240 SCT250 26/12 A2996 RMK CC3CC1CI1 CI TR DIST HZ E-S SLP146 DENSITY ALT 1500FT
12:00
V
24 °C 25 mi - 030° 030° 6 kt METAR CYXX 261900Z 03006KT 25SM FEW230 SCT240 SCT250 24/12 A2998 RMK CC2CC1CC1 DIST HZ E-SE SLP152 DENSITY ALT 1300FT
11:00
V
20 °C 25 mi 25.000 ft Var 000° 0 kt METAR CYXX 261800Z 00000KT 25SM FEW240 BKN250 BKN260 20/12 A3000 RMK CC2CC3CI1 SLP160 DENSITY ALT 800FT
10:00
V
18 °C 25 mi 25.000 ft Var Var 2 kt METAR CYXX 261700Z VRB02KT 25SM SCT240 BKN250 BKN260 18/12 A3001 RMK CC3CI3CI1 CI TR DIST HZ E-SE SLP164 DENSITY ALT 500FT
09:00
V
15 °C 25 mi 25.000 ft Var 000° 0 kt METAR CYXX 261600Z 00000KT 25SM SCT240 BKN250 15/12 A3000 RMK CC4CI2 DIST HZ E-SE SLP163 DENSITY ALT 200FT
08:15
V
14 °C 30 mi 25.000 ft 280° 280° 2 kt METAR CYXX 261515Z 28002KT 30SM FEW230 BKN250 14/11 A3001 RMK CC2CI3 DIST HZ E-SE SLP164
08:00
V
13 °C 30 mi - 350° 350° 3 kt METAR CYXX 261500Z 35003KT 30SM FEW180 SCT220 13/11 A3001 RMK AC2CI2 DIST HZ E-SE SLP164
Ältere Daten

Wir und Dritte verfolgen dein Internetverhalten auf unserer Website mit Cookies. Wenn du fortfährst, gehen wir davon aus, dass du mit unserer Cookie-Richtlinie einverstanden bist. Mehr erfahren